Time;durP1;ratioP1;P1;durP2;ratioP2;P2;SDS_P1;SDS_P2;PMS_P1;PMS_P2;Temp;Humidity;BMP_temperature;BMP_pressure;BME280_temperature;BME280_humidity;BME280_pressure;Samples;Min_cycle;Max_cycle;Signal;HPM_P1;HPM_P2
2022/05/09 00:00:14;;;;;;;9.17;7.17;;;16.20;99.90;;;16.74;nan;101417.16;4932434;29;21212;-68
2022/05/09 00:02:42;;;;;;;13.13;7.80;;;16.20;99.90;;;16.69;nan;101419.38;4932602;29;20668;-67
2022/05/09 00:05:15;;;;;;;8.37;7.00;;;16.10;99.90;;;16.73;nan;101415.53;4931778;29;21010;-67
2022/05/09 00:07:43;;;;;;;10.90;7.47;;;16.20;99.90;;;16.69;nan;101414.97;4934985;29;21047;-67
2022/05/09 00:10:13;;;;;;;11.80;7.80;;;16.20;99.90;;;16.61;nan;101420.00;4938628;29;20639;-66
2022/05/09 00:12:40;;;;;;;9.00;7.90;;;16.10;99.90;;;16.51;nan;101408.59;4941312;29;20636;-67
2022/05/09 00:15:08;;;;;;;9.40;7.80;;;16.10;99.90;;;16.50;nan;101414.00;4958360;28;20643;-68
2022/05/09 00:17:35;;;;;;;9.07;7.50;;;16.00;99.90;;;16.58;nan;101412.38;4936982;29;20675;-66
2022/05/09 00:20:03;;;;;;;13.27;7.47;;;16.10;99.90;;;16.51;nan;101418.28;4945989;28;20644;-68
2022/05/09 00:22:31;;;;;;;12.40;7.20;;;16.00;99.90;;;16.36;nan;101417.75;4936508;29;20680;-67
2022/05/09 00:25:01;;;;;;;9.77;7.60;;;15.90;99.90;;;16.26;nan;101416.84;4938290;29;20631;-67
2022/05/09 00:27:28;;;;;;;10.43;7.50;;;15.70;99.90;;;16.33;nan;101417.19;4954626;28;20666;-67
2022/05/09 00:29:57;;;;;;;7.93;6.90;;;15.80;99.90;;;16.27;nan;101413.25;4955197;29;20703;-68
2022/05/09 00:32:25;;;;;;;10.47;7.80;;;15.70;99.90;;;16.27;nan;101418.50;4956995;29;20636;-67
2022/05/09 00:34:52;;;;;;;7.40;6.60;;;15.70;99.90;;;16.25;nan;101421.28;4933370;29;20636;-67
2022/05/09 00:37:19;;;;;;;11.27;7.20;;;15.70;99.90;;;16.22;nan;101421.56;4955127;28;20668;-67
2022/05/09 00:39:46;;;;;;;9.77;6.47;;;15.80;99.90;;;16.19;nan;101419.16;4957457;28;20636;-65
2022/05/09 00:42:14;;;;;;;9.13;7.33;;;15.70;99.90;;;16.16;nan;101418.59;4956009;28;20648;-68
2022/05/09 00:44:41;;;;;;;10.83;6.93;;;15.70;99.90;;;16.14;nan;101421.31;4938350;29;21193;-68
2022/05/09 00:47:09;;;;;;;8.07;6.17;;;15.70;99.90;;;16.16;nan;101421.22;4968582;28;20658;-67
2022/05/09 00:49:50;;;;;;;7.53;6.53;;;15.60;99.90;;;16.17;nan;101423.72;4962450;28;21222;-68
2022/05/09 00:52:47;;;;;;;7.27;6.53;;;15.70;99.90;;;16.18;nan;101414.03;4924252;29;20648;-66
2022/05/09 00:55:22;;;;;;;7.27;6.57;;;15.70;99.90;;;16.13;nan;101416.19;4940961;29;20985;-67
2022/05/09 00:58:07;;;;;;;8.87;5.60;;;15.60;99.90;;;16.09;nan;101425.31;4941119;29;20647;-67
2022/05/09 01:00:34;;;;;;;12.07;7.37;;;15.60;99.90;;;15.98;nan;101414.81;4955074;28;20654;-67
2022/05/09 01:03:13;;;;;;;7.30;6.53;;;15.50;99.90;;;15.96;nan;101408.84;4957249;29;20672;-67
2022/05/09 01:05:50;;;;;;;7.73;5.50;;;15.50;99.90;;;15.88;nan;101413.91;4952319;28;20783;-66
2022/05/09 01:08:21;;;;;;;8.53;5.50;;;15.40;99.90;;;15.90;nan;101410.19;4943897;28;20639;-69
2022/05/09 01:10:49;;;;;;;8.60;6.43;;;15.40;99.90;;;15.91;nan;101411.00;4957499;28;20627;-64
2022/05/09 01:13:20;;;;;;;7.47;6.10;;;15.40;99.90;;;15.74;nan;101415.03;4944857;28;20703;-67
2022/05/09 01:15:51;;;;;;;6.50;5.80;;;15.30;99.90;;;15.70;nan;101415.41;4939672;29;20605;-66
2022/05/09 01:18:18;;;;;;;11.27;7.33;;;15.20;99.90;;;15.65;nan;101417.59;4929290;29;20652;-67
2022/05/09 01:20:46;;;;;;;7.87;5.90;;;15.20;99.90;;;15.64;nan;101416.75;4954787;28;20624;-68
2022/05/09 01:23:14;;;;;;;6.90;5.97;;;15.20;99.90;;;15.60;nan;101417.09;4941791;29;20711;-68
2022/05/09 01:25:41;;;;;;;9.50;6.32;;;15.10;99.90;;;15.57;nan;101418.19;4934621;29;24449;-67
2022/05/09 01:28:10;;;;;;;10.88;7.20;;;15.10;99.90;;;15.49;nan;101410.91;4933335;29;24453;-68
2022/05/09 01:30:58;;;;;;;7.17;5.37;;;15.10;99.90;;;15.47;nan;101415.47;4942153;29;20224;-68
2022/05/09 01:33:33;;;;;;;7.40;6.23;;;15.00;99.90;;;15.61;nan;101414.34;4934669;29;20644;-69
2022/05/09 01:36:15;;;;;;;7.27;5.07;;;15.10;99.90;;;15.51;nan;101413.41;4917885;29;20648;-67
2022/05/09 01:38:59;;;;;;;6.50;5.43;;;15.00;99.90;;;15.60;nan;101423.22;4936984;29;20925;-68
2022/05/09 01:41:28;;;;;;;7.90;5.80;;;15.10;99.90;;;15.51;nan;101416.88;4938043;29;20660;-68
2022/05/09 01:43:55;;;;;;;7.93;5.33;;;15.00;99.90;;;15.45;nan;101427.91;4945328;28;20635;-68
2022/05/09 01:46:29;;;;;;;7.73;6.30;;;14.90;99.90;;;15.47;nan;101430.41;4953417;28;20673;-68
2022/05/09 01:51:46;;;;;;;8.90;5.80;;;15.10;99.90;;;15.46;nan;101431.38;4940082;29;21184;-67
2022/05/09 01:54:15;;;;;;;7.87;5.80;;;15.00;99.90;;;15.47;nan;101435.66;4955192;28;20636;-68
2022/05/09 01:56:43;;;;;;;7.30;5.33;;;15.00;99.90;;;15.40;nan;101437.06;4954529;28;20663;-65
2022/05/09 01:59:12;;;;;;;8.47;5.90;;;14.90;99.90;;;15.45;nan;101434.94;4942764;28;20653;-68
2022/05/09 02:01:45;;;;;;;8.10;6.10;;;15.00;99.90;;;15.45;nan;101422.66;4952873;28;20684;-68
2022/05/09 02:04:13;;;;;;;5.80;5.20;;;15.00;99.90;;;15.36;nan;101427.75;4939587;29;21003;-68
2022/05/09 02:06:41;;;;;;;6.73;5.27;;;14.90;99.90;;;15.34;nan;101427.88;4928076;29;21104;-68
2022/05/09 02:09:09;;;;;;;10.60;5.43;;;14.90;99.90;;;15.38;nan;101434.56;4954159;28;21199;-69
2022/05/09 02:11:37;;;;;;;7.13;5.50;;;14.90;99.90;;;15.32;nan;101429.81;4953286;28;20643;-68
2022/05/09 02:14:05;;;;;;;7.67;5.27;;;14.80;99.90;;;15.22;nan;101433.28;4959700;28;20635;-69
2022/05/09 02:16:32;;;;;;;7.80;6.20;;;14.80;99.90;;;15.18;nan;101443.19;4965532;28;20663;-70
2022/05/09 02:19:00;;;;;;;8.70;5.67;;;14.80;99.90;;;15.20;nan;101432.56;4948048;28;20637;-67
2022/05/09 02:21:27;;;;;;;5.83;4.90;;;14.70;99.90;;;15.14;nan;101431.22;4949694;28;20683;-68
2022/05/09 02:23:54;;;;;;;6.67;5.60;;;14.70;99.90;;;15.13;nan;101432.19;4948675;29;20626;-66
2022/05/09 02:26:21;;;;;;;7.37;5.60;;;14.60;99.90;;;15.08;nan;101428.25;4934395;29;21026;-67
2022/05/09 02:28:48;;;;;;;6.90;5.37;;;14.60;99.90;;;15.13;nan;101426.94;4944376;28;21239;-67
2022/05/09 02:31:15;;;;;;;6.60;5.40;;;14.70;99.90;;;15.09;nan;101425.53;4932526;29;21228;-67
2022/05/09 02:33:42;;;;;;;5.50;4.47;;;14.60;99.90;;;15.11;nan;101426.22;4933218;29;20637;-67
2022/05/09 02:36:09;;;;;;;6.83;5.23;;;14.60;99.90;;;15.04;nan;101429.44;4939459;29;20656;-67
2022/05/09 02:38:36;;;;;;;10.90;6.00;;;14.50;99.90;;;14.95;nan;101424.94;4952819;28;20604;-70
2022/05/09 02:41:04;;;;;;;8.37;5.20;;;14.40;99.90;;;14.94;nan;101423.22;4935647;28;20695;-66
2022/05/09 02:43:34;;;;;;;8.30;5.67;;;14.50;99.90;;;14.92;nan;101433.03;4951114;29;20675;-69
2022/05/09 02:46:04;;;;;;;6.73;5.27;;;14.40;99.90;;;14.91;nan;101436.59;4952542;28;20664;-70
2022/05/09 02:48:36;;;;;;;7.43;5.80;;;14.40;99.90;;;14.96;nan;101429.22;4936537;29;20981;-67
2022/05/09 02:51:08;;;;;;;7.67;5.00;;;14.50;99.90;;;14.88;nan;101436.84;4932279;29;21280;-67
2022/05/09 02:53:35;;;;;;;9.80;7.10;;;14.40;99.90;;;14.82;nan;101432.91;4933699;28;20645;-67
2022/05/09 02:56:04;;;;;;;6.03;5.23;;;14.40;99.90;;;14.80;nan;101432.16;4918870;29;21244;-67
2022/05/09 02:58:31;;;;;;;5.77;4.83;;;14.30;99.90;;;14.81;nan;101433.84;4954344;29;20635;-67
2022/05/09 03:00:58;;;;;;;9.60;6.40;;;14.40;99.90;;;14.74;nan;101427.38;4953187;29;20718;-67
2022/05/09 03:06:11;;;;;;;6.07;5.43;;;14.30;99.90;;;14.73;nan;101433.63;4944238;28;20676;-70
2022/05/09 03:08:39;;;;;;;5.93;4.27;;;14.30;99.90;;;14.73;nan;101431.00;4933516;29;20621;-69
2022/05/09 03:11:06;;;;;;;8.60;5.00;;;14.30;99.90;;;14.72;nan;101431.94;4951221;29;20640;-67
2022/05/09 03:13:34;;;;;;;5.80;5.10;;;14.30;99.90;;;14.67;nan;101432.28;4952463;29;20616;-69
2022/05/09 03:16:02;;;;;;;6.27;4.90;;;14.20;99.90;;;14.65;nan;101428.13;4936496;29;20677;-70
2022/05/09 03:18:29;;;;;;;5.93;5.30;;;14.10;99.90;;;14.62;nan;101428.34;4937644;28;20640;-67
2022/05/09 03:20:56;;;;;;;5.67;4.83;;;14.10;99.90;;;14.61;nan;101426.66;4951464;29;20643;-67
2022/05/09 03:23:23;;;;;;;6.57;5.07;;;14.10;99.90;;;14.60;nan;101425.00;4939378;28;20680;-68
2022/05/09 03:25:50;;;;;;;9.17;5.53;;;14.10;99.90;;;14.66;nan;101421.91;4940306;29;20636;-67
2022/05/09 03:28:24;;;;;;;10.40;5.60;;;14.20;99.90;;;14.72;nan;101424.91;4947399;28;20641;-70
2022/05/09 03:30:53;;;;;;;8.00;5.07;;;14.30;99.90;;;14.66;nan;101430.63;4957059;28;20701;-67
2022/05/09 03:33:22;;;;;;;7.53;5.73;;;14.20;99.90;;;14.62;nan;101430.97;4952204;29;20700;-68
2022/05/09 03:35:50;;;;;;;8.40;5.53;;;14.10;99.90;;;14.55;nan;101424.50;4945268;28;20819;-67
2022/05/09 03:38:18;;;;;;;8.07;5.77;;;14.10;99.90;;;14.53;nan;101426.41;4951502;29;20640;-67
2022/05/09 03:40:46;;;;;;;6.90;6.10;;;14.10;99.90;;;14.58;nan;101438.25;4948650;29;21224;-67
2022/05/09 03:43:13;;;;;;;8.63;5.53;;;14.10;99.90;;;14.52;nan;101436.06;4946873;28;20656;-67
2022/05/09 03:45:44;;;;;;;6.50;5.90;;;14.10;99.90;;;14.50;nan;101437.97;4934923;29;20624;-67
2022/05/09 03:48:13;;;;;;;8.90;6.40;;;14.10;99.90;;;14.54;nan;101430.72;4921022;29;20753;-68
2022/05/09 03:50:40;;;;;;;7.13;6.13;;;14.10;99.90;;;14.46;nan;101431.28;4951562;29;21014;-68
2022/05/09 03:53:07;;;;;;;9.00;6.63;;;14.10;99.90;;;14.41;nan;101435.22;4934493;29;20648;-67
2022/05/09 03:55:35;;;;;;;8.20;5.70;;;14.00;99.90;;;14.33;nan;101434.97;4951452;29;20628;-70
2022/05/09 03:58:03;;;;;;;8.17;6.50;;;13.90;99.90;;;14.26;nan;101436.34;4947954;28;21187;-68
2022/05/09 04:00:32;;;;;;;8.23;6.57;;;13.80;99.90;;;14.26;nan;101437.16;4935032;29;20644;-68
2022/05/09 04:03:00;;;;;;;10.90;6.40;;;13.80;99.90;;;14.30;nan;101438.66;4932816;28;20677;-68
2022/05/09 04:05:30;;;;;;;6.23;5.17;;;13.90;99.90;;;14.39;nan;101447.63;4909165;29;21216;-68
2022/05/09 04:08:00;;;;;;;7.90;5.73;;;14.00;99.90;;;14.40;nan;101450.13;4916782;29;20653;-69
2022/05/09 04:10:32;;;;;;;6.70;5.80;;;13.90;99.90;;;14.31;nan;101448.19;4939366;29;20636;-68
2022/05/09 04:13:00;;;;;;;8.00;6.07;;;13.90;99.90;;;14.37;nan;101446.91;4946415;28;20628;-68
2022/05/09 04:18:17;;;;;;;8.93;6.87;;;14.00;99.90;;;14.47;nan;101455.75;4944646;28;20700;-71
2022/05/09 04:20:46;;;;;;;13.43;7.20;;;14.00;99.90;;;14.56;nan;101455.06;4932498;29;20624;-67
2022/05/09 04:23:14;;;;;;;10.23;6.23;;;14.10;99.90;;;14.55;nan;101461.25;4939528;29;20687;-67
2022/05/09 04:25:42;;;;;;;8.60;6.90;;;14.10;99.90;;;14.69;nan;101453.19;4947985;28;20640;-65
2022/05/09 04:28:13;;;;;;;6.83;6.13;;;14.30;99.90;;;14.81;nan;101457.50;4943667;28;20636;-67
2022/05/09 04:30:40;;;;;;;6.83;5.67;;;14.40;99.90;;;14.97;nan;101463.25;4917753;29;20668;-68
2022/05/09 04:33:07;;;;;;;8.47;6.77;;;14.60;99.90;;;15.12;nan;101469.13;4951014;29;21463;-68
2022/05/09 04:35:38;;;;;;;7.57;6.10;;;14.70;99.90;;;15.18;nan;101463.41;4935579;28;20640;-68
2022/05/09 04:38:06;;;;;;;8.20;5.83;;;14.80;99.90;;;15.25;nan;101462.78;4952009;29;21252;-72
2022/05/09 04:40:36;;;;;;;7.33;5.73;;;14.90;99.90;;;15.41;nan;101465.06;4935733;29;20985;-68
2022/05/09 04:43:04;;;;;;;6.43;5.83;;;15.00;99.90;;;15.57;nan;101469.97;4944342;29;21426;-70
2022/05/09 04:45:32;;;;;;;8.67;5.70;;;15.20;99.90;;;15.63;nan;101462.41;4930588;29;20706;-67
2022/05/09 04:48:00;;;;;;;9.50;5.90;;;15.30;99.90;;;15.69;nan;101461.09;4931209;29;20680;-69
2022/05/09 04:50:28;;;;;;;7.50;5.50;;;15.30;99.90;;;15.85;nan;101469.41;4936135;28;20637;-70
2022/05/09 04:52:55;;;;;;;7.93;6.10;;;15.50;99.90;;;16.01;nan;101470.72;4950981;29;20632;-69
2022/05/09 04:55:22;;;;;;;6.57;5.47;;;15.60;99.90;;;16.17;nan;101472.91;4949015;28;20637;-68
2022/05/09 04:57:50;;;;;;;8.13;6.40;;;15.80;99.90;;;16.37;nan;101472.13;4936702;29;20711;-68
2022/05/09 05:00:24;;;;;;;7.50;5.87;;;16.00;99.90;;;16.52;nan;101468.25;4951878;28;20638;-68
2022/05/09 05:02:52;;;;;;;6.53;5.60;;;16.20;99.90;;;16.72;nan;101475.28;4931665;29;20691;-68
2022/05/09 05:05:20;;;;;;;9.50;6.07;;;16.30;99.90;;;16.83;nan;101480.50;4950994;28;20707;-70
2022/05/09 05:07:48;;;;;;;7.03;6.33;;;16.50;99.90;;;17.02;nan;101466.56;4959479;28;20662;-68
2022/05/09 05:10:16;;;;;;;7.53;5.73;;;16.70;99.90;;;17.24;nan;101478.75;4958091;28;21255;-69
2022/05/09 05:12:43;;;;;;;6.17;5.30;;;16.90;99.90;;;17.43;nan;101473.56;4943033;28;20636;-69
2022/05/09 05:15:11;;;;;;;6.10;5.33;;;17.10;99.90;;;17.60;nan;101476.41;4935730;29;21133;-69
2022/05/09 05:17:39;;;;;;;7.17;5.33;;;17.30;99.90;;;17.78;nan;101481.88;4934586;29;20665;-71
2022/05/09 05:20:12;;;;;;;6.40;5.50;;;17.50;99.90;;;18.03;nan;101478.72;4935280;28;20639;-71
2022/05/09 05:22:42;;;;;;;6.30;5.70;;;17.70;99.90;;;18.30;nan;101480.66;4918546;29;20660;-68
2022/05/09 05:25:13;;;;;;;6.60;5.90;;;18.00;99.90;;;18.44;nan;101488.22;4934176;29;21208;-68
2022/05/09 05:27:40;;;;;;;6.33;5.67;;;18.20;99.90;;;18.70;nan;101493.75;4935712;28;20665;-68
2022/05/09 05:30:09;;;;;;;8.63;6.30;;;18.40;99.90;;;18.84;nan;101483.56;4935172;29;20639;-68
2022/05/09 05:32:39;;;;;;;8.63;5.33;;;18.60;99.90;;;19.12;nan;101495.84;4935973;29;20635;-70
2022/05/09 05:35:10;;;;;;;8.00;6.07;;;18.80;99.90;;;19.13;nan;101494.03;4934809;29;20641;-72
2022/05/09 05:37:38;;;;;;;8.37;6.50;;;18.80;99.90;;;19.54;nan;101501.56;4937686;29;21266;-68
2022/05/09 05:40:06;;;;;;;9.93;5.97;;;19.30;99.90;;;19.94;nan;101504.69;4937581;29;20634;-68
2022/05/09 05:42:37;;;;;;;6.90;5.50;;;19.70;99.90;;;20.34;nan;101503.44;4954579;29;20655;-66
2022/05/09 05:45:05;;;;;;;9.13;6.23;;;20.10;99.90;;;20.83;nan;101505.47;4936170;29;20620;-71
2022/05/09 05:47:32;;;;;;;6.83;6.13;;;20.60;99.90;;;21.27;nan;101508.97;4936221;29;20667;-70
2022/05/09 05:49:59;;;;;;;6.50;5.57;;;21.10;99.90;;;21.64;nan;101512.94;4939016;29;21064;-70
2022/05/09 05:52:31;;;;;;;8.73;5.97;;;21.40;99.80;;;21.88;nan;101517.53;4944070;28;21177;-68
2022/05/09 05:54:58;;;;;;;6.77;5.60;;;21.70;98.20;;;22.13;nan;101511.25;4920952;29;20712;-68
2022/05/09 05:57:35;;;;;;;8.83;6.33;;;21.90;98.00;;;22.54;nan;101509.47;4949434;28;20727;-68
2022/05/09 06:00:33;;;;;;;7.97;6.43;;;22.30;97.00;;;22.99;nan;101515.13;4935101;29;20629;-68
2022/05/09 06:03:00;;;;;;;11.00;5.70;;;22.80;95.70;;;;;;4932841;29;20684;-68
2022/05/09 06:05:29;;;;;;;7.83;6.87;;;23.40;94.60;;;;;;4947290;28;21128;-69
2022/05/09 06:07:56;;;;;;;8.17;6.07;;;24.00;92.70;;;;;;4953497;29;21014;-69
2022/05/09 06:10:23;;;;;;;8.57;5.60;;;24.40;91.10;;;;;;4940942;28;20640;-71
2022/05/09 06:12:50;;;;;;;6.53;5.90;;;24.90;89.90;;;;;;4935287;29;20615;-68
2022/05/09 06:15:28;;;;;;;7.10;6.23;;;25.20;86.80;;;;;;4936670;29;20791;-68
2022/05/09 06:18:00;;;;;;;8.07;6.53;;;25.30;85.30;;;;;;4941237;28;20715;-69
2022/05/09 06:20:31;;;;;;;6.00;5.40;;;25.80;82.90;;;;;;4938192;28;20637;-71
2022/05/09 06:22:59;;;;;;;7.10;6.40;;;26.10;80.10;;;26.43;nan;101523.16;4948659;28;20667;-71
2022/05/09 06:25:28;;;;;;;7.23;5.70;;;26.70;76.90;;;27.11;nan;101531.34;4923304;29;20629;-70
2022/05/09 06:27:56;;;;;;;8.07;6.23;;;26.90;75.40;;;27.59;nan;101533.09;4934377;29;21248;-71
2022/05/09 06:30:24;;;;;;;7.40;6.70;;;27.50;72.60;;;28.18;nan;101529.78;4930543;29;20636;-70
2022/05/09 06:32:51;;;;;;;9.97;6.53;;;27.90;70.70;;;28.72;nan;101533.19;4933975;29;20629;-67
2022/05/09 06:35:23;;;;;;;6.60;6.00;;;28.40;68.80;;;29.54;nan;101527.25;4940040;28;20636;-69
2022/05/09 06:37:59;;;;;;;7.07;6.47;;;29.30;66.20;;;30.09;nan;101531.16;4946847;29;20656;-68
2022/05/09 06:40:29;;;;;;;6.83;6.23;;;29.90;63.60;;;30.41;nan;101520.19;4952377;28;20712;-69
2022/05/09 06:42:57;;;;;;;6.97;6.27;;;30.40;61.40;;;30.40;nan;101526.63;4952782;28;21043;-68
2022/05/09 06:45:26;;;;;;;6.63;6.03;;;30.10;60.60;;;31.18;nan;101535.06;4936539;29;20607;-68
2022/05/09 06:47:55;;;;;;;5.77;5.27;;;30.80;59.70;;;31.69;nan;101540.13;4954471;28;21046;-68
2022/05/09 06:50:31;;;;;;;7.43;6.70;;;31.30;58.30;;;32.57;nan;101539.28;4929390;28;21196;-72
2022/05/09 06:52:59;;;;;;;9.53;6.40;;;32.20;56.40;;;32.60;nan;101532.59;4937702;28;20627;-69
2022/05/09 06:55:47;;;;;;;6.23;5.70;;;32.30;54.80;;;33.11;nan;101538.16;4952174;28;20641;-70
2022/05/09 06:58:25;;;;;;;6.73;6.03;;;32.60;54.40;;;33.76;nan;101530.59;4916739;29;20625;-70
2022/05/09 07:00:53;;;;;;;5.37;4.90;;;33.20;53.30;;;34.80;nan;101527.31;4933710;29;20664;-68
2022/05/09 07:03:21;;;;;;;6.50;6.00;;;34.40;51.60;;;35.69;nan;101534.25;4934428;28;20732;-68
2022/05/09 07:05:51;;;;;;;6.83;5.90;;;35.30;50.30;;;36.65;nan;101539.84;4932465;29;20718;-70
2022/05/09 07:08:21;;;;;;;6.23;5.63;;;36.30;48.40;;;37.07;nan;101533.34;4917639;29;20616;-69
2022/05/09 07:10:49;;;;;;;7.10;6.37;;;36.80;47.00;;;37.31;nan;101531.00;4938470;28;21195;-66
2022/05/09 07:13:36;;;;;;;10.20;6.10;;;37.00;46.10;;;37.12;nan;101517.03;4952463;29;20605;-71
2022/05/09 07:16:04;;;;;;;8.10;6.70;;;36.90;45.80;;;36.67;nan;101529.53;4934404;29;20679;-68
2022/05/09 07:18:31;;;;;;;6.53;5.90;;;36.70;45.20;;;36.62;nan;101532.19;4932295;28;20644;-69
2022/05/09 07:20:58;;;;;;;6.77;6.07;;;36.40;45.90;;;36.42;nan;101528.25;4933667;29;20709;-68
2022/05/09 07:23:25;;;;;;;6.23;5.30;;;36.30;45.60;;;37.06;nan;101530.88;4934231;29;20668;-69
2022/05/09 07:25:55;;;;;;;9.67;5.80;;;36.70;45.30;;;37.65;nan;101532.25;4933998;29;20636;-66
2022/05/09 07:28:23;;;;;;;6.47;5.90;;;37.40;44.70;;;38.09;nan;101527.19;4936414;28;21007;-67
2022/05/09 07:30:50;;;;;;;6.40;5.90;;;37.80;43.90;;;38.08;nan;101525.53;4946204;28;20642;-63
2022/05/09 07:33:19;;;;;;;5.93;5.53;;;38.00;43.70;;;38.59;nan;101535.38;4962789;28;20635;-66
2022/05/09 07:35:47;;;;;;;8.03;6.30;;;38.30;43.40;;;38.35;nan;101530.78;4945696;29;20639;-68
2022/05/09 07:38:16;;;;;;;6.83;6.33;;;38.30;42.80;;;38.68;nan;101536.50;4930667;29;20637;-65
2022/05/09 07:40:45;;;;;;;6.00;5.50;;;38.50;42.70;;;39.25;nan;101530.66;4933895;29;20632;-67
2022/05/09 07:43:18;;;;;;;6.97;6.37;;;39.00;42.30;;;38.66;nan;101532.38;4933445;29;20724;-66
2022/05/09 07:45:50;;;;;;;6.80;6.20;;;38.80;41.90;;;38.47;nan;101528.59;4917556;29;20633;-67
2022/05/09 07:48:21;;;;;;;5.90;5.50;;;38.30;42.30;;;38.54;nan;101532.69;4933489;29;20624;-66
2022/05/09 07:50:49;;;;;;;5.60;5.00;;;38.40;42.30;;;38.95;nan;101536.19;4933889;29;21006;-65
2022/05/09 07:53:21;;;;;;;5.60;5.10;;;38.70;41.80;;;39.24;nan;101531.75;4959252;28;20643;-66
2022/05/09 07:55:49;;;;;;;7.13;6.30;;;39.10;41.30;;;39.13;nan;101538.34;4954217;28;20628;-66
2022/05/09 07:58:16;;;;;;;6.67;6.13;;;39.10;41.10;;;38.33;nan;101531.06;4949063;28;20696;-66
2022/05/09 08:00:45;;;;;;;6.57;5.77;;;38.70;41.30;;;39.04;nan;101536.44;4932371;28;20644;-66
2022/05/09 08:03:23;;;;;;;8.30;6.60;;;38.90;41.40;;;38.87;nan;101539.47;4932994;29;20759;-66
2022/05/09 08:05:50;;;;;;;6.20;5.60;;;39.10;41.10;;;39.47;nan;101542.03;4935425;28;20637;-66
2022/05/09 08:08:18;;;;;;;6.70;6.10;;;39.40;40.80;;;39.43;nan;101538.22;4955208;28;20644;-67
2022/05/09 08:10:45;;;;;;;6.73;5.83;;;39.30;40.80;;;39.82;nan;101540.22;4954358;28;21242;-67
2022/05/09 08:13:15;;;;;;;5.63;5.10;;;39.60;40.60;;;40.00;nan;101531.38;4964301;28;20652;-66
2022/05/09 08:15:44;;;;;;;13.70;5.83;;;40.00;40.10;;;39.25;nan;101525.19;4939587;28;20631;-69
2022/05/09 08:18:13;;;;;;;6.43;5.93;;;39.40;40.20;;;39.38;nan;101529.22;4938887;28;21289;-66
2022/05/09 08:20:45;;;;;;;6.57;6.03;;;39.30;40.90;;;39.38;nan;101534.69;4946710;28;20770;-67
2022/05/09 08:23:19;;;;;;;6.83;6.23;;;39.30;40.70;;;39.96;nan;101542.06;4951613;29;20664;-70
2022/05/09 08:25:49;;;;;;;14.63;7.00;;;40.00;40.10;;;40.24;nan;101533.13;4951214;28;20628;-66
2022/05/09 08:28:18;;;;;;;6.63;5.70;;;40.30;40.00;;;40.44;nan;101543.13;4945536;28;20648;-67
2022/05/09 08:30:47;;;;;;;6.40;6.00;;;40.40;39.50;;;40.66;nan;101545.34;4948956;29;21195;-66
2022/05/09 08:33:19;;;;;;;6.83;6.07;;;40.80;39.30;;;41.41;nan;101544.56;4944715;28;20640;-66
2022/05/09 08:35:50;;;;;;;6.03;5.63;;;41.50;38.90;;;41.83;nan;101538.22;4951566;29;21428;-69
2022/05/09 08:38:19;;;;;;;6.80;6.20;;;42.00;38.40;;;41.42;nan;101542.63;4929933;29;20640;-67
2022/05/09 08:41:05;;;;;;;7.03;6.33;;;41.60;38.40;;;42.08;nan;101543.38;4947240;28;20639;-70
2022/05/09 08:43:55;;;;;;;5.47;5.07;;;42.20;37.80;;;42.80;nan;101539.13;4947490;28;20680;-71
2022/05/09 08:46:43;;;;;;;5.87;5.37;;;42.80;37.50;;;43.16;nan;101533.75;4952321;29;20722;-72
2022/05/09 08:49:39;;;;;;;6.20;5.73;;;43.40;37.20;;;43.59;nan;101532.31;4949498;28;20635;-71
2022/05/09 08:52:23;;;;;;;5.30;4.90;;;43.50;37.10;;;43.60;nan;101535.84;4945581;28;20641;-71
2022/05/09 08:54:53;;;;;;;5.97;5.57;;;43.60;36.70;;;43.60;nan;101533.09;4927177;29;20632;-70
2022/05/09 08:57:37;;;;;;;5.87;5.47;;;43.60;36.60;;;44.02;nan;101534.63;4950433;28;20660;-71
2022/05/09 09:00:18;;;;;;;6.50;6.10;;;44.10;36.40;;;43.94;nan;101538.94;4926419;29;20644;-70
2022/05/09 09:02:59;;;;;;;6.13;5.63;;;44.10;36.20;;;43.65;nan;101536.59;4932887;29;20640;-70
2022/05/09 09:05:32;;;;;;;6.13;5.70;;;44.10;36.00;;;44.45;nan;101541.28;4927305;28;20644;-71
2022/05/09 09:08:05;;;;;;;5.67;5.27;;;44.50;36.10;;;45.41;nan;101535.88;4950466;28;20671;-70
2022/05/09 09:10:47;;;;;;;5.33;4.97;;;45.40;35.50;;;45.98;nan;101540.97;4939404;28;20644;-74
2022/05/09 09:14:07;;;;;;;5.90;5.30;;;46.00;34.90;;;45.69;nan;101534.44;4918218;29;21191;-68
2022/05/09 09:16:58;;;;;;;5.70;5.23;;;46.50;34.70;;;43.50;nan;101523.16;4945620;28;20668;-68
2022/05/09 09:19:56;;;;;;;6.87;6.23;;;44.60;35.10;;;44.19;nan;101532.03;4947416;28;20638;-73
2022/05/09 09:23:02;;;;;;;6.90;6.20;;;44.20;35.60;;;43.65;nan;101528.34;4931790;29;20636;-66
2022/05/09 09:25:56;;;;;;;5.63;5.23;;;43.70;35.70;;;44.24;nan;101526.38;4937571;28;20640;-67
2022/05/09 09:28:49;;;;;;;6.17;5.80;;;44.10;35.50;;;44.21;nan;101536.09;4945480;28;20648;-66
2022/05/09 09:31:35;;;;;;;5.93;5.43;;;44.20;35.50;;;44.49;nan;101529.31;4932642;28;20632;-67
2022/05/09 09:34:17;;;;;;;6.47;5.87;;;44.70;35.10;;;45.36;nan;101521.09;4953028;28;20639;-66
2022/05/09 09:36:50;;;;;;;5.30;5.00;;;45.50;34.80;;;46.34;nan;101523.25;4947259;28;20672;-63
2022/05/09 09:39:20;;;;;;;5.87;5.47;;;46.20;34.50;;;46.72;nan;101519.41;4936902;29;20643;-66
2022/05/09 09:41:50;;;;;;;5.47;4.73;;;47.00;34.00;;;47.37;nan;101524.44;4944533;28;20679;-67
2022/05/09 09:44:25;;;;;;;5.90;5.60;;;47.40;33.80;;;47.86;nan;101528.28;4930585;29;20655;-69
2022/05/09 09:47:24;;;;;;;5.57;5.20;;;48.10;33.50;;;48.14;nan;101523.00;4929370;29;20675;-70
2022/05/09 09:50:21;;;;;;;5.47;5.07;;;48.20;33.60;;;48.51;nan;101518.41;4934242;28;20911;-70
2022/05/09 09:52:56;;;;;;;5.30;5.00;;;48.90;33.20;;;48.55;nan;101513.78;4925697;29;21199;-70
2022/05/09 09:55:33;;;;;;;9.20;5.20;;;48.70;33.00;;;48.60;nan;101531.00;4946043;28;21007;-68
2022/05/09 09:58:26;;;;;;;5.00;4.70;;;48.60;33.00;;;48.85;nan;101520.75;4945137;29;21262;-70
2022/05/09 10:01:14;;;;;;;5.23;5.03;;;48.90;32.60;;;48.53;nan;101511.38;4933257;29;20635;-74
2022/05/09 10:03:48;;;;;;;5.30;5.00;;;48.80;32.60;;;47.22;nan;101510.41;4953701;29;20690;-69
2022/05/09 10:06:21;;;;;;;5.60;5.30;;;47.50;32.90;;;45.46;nan;101508.13;4938304;29;21330;-68
2022/05/09 10:09:01;;;;;;;5.30;5.00;;;45.80;33.80;;;44.65;nan;101504.97;4933855;29;20675;-69
2022/05/09 10:11:30;;;;;;;4.90;4.60;;;45.20;33.90;;;44.59;nan;101492.47;4935344;29;20976;-69
2022/05/09 10:14:05;;;;;;;10.77;7.20;;;44.70;34.30;;;43.57;nan;101489.75;4947712;28;20650;-69
2022/05/09 10:16:45;;;;;;;6.40;5.83;;;43.80;35.00;;;42.52;nan;101489.97;4972979;28;20658;-69
2022/05/09 10:19:30;;;;;;;5.63;5.23;;;42.60;35.30;;;40.88;nan;101483.59;4935733;28;20644;-72
2022/05/09 10:25:10;;;;;;;5.70;5.30;;;38.50;38.10;;;36.56;nan;101469.63;4936848;28;21239;-70
2022/05/09 10:27:38;;;;;;;6.07;5.53;;;36.30;39.80;;;35.45;nan;101475.03;4923658;29;20679;-69
2022/05/09 10:30:30;;;;;;;5.90;5.40;;;34.70;41.50;;;33.96;nan;101462.47;4935899;29;20640;-68
2022/05/09 10:33:02;;;;;;;6.20;5.70;;;33.20;43.00;;;33.00;nan;101467.84;4936333;29;21408;-69
2022/05/09 10:35:52;;;;;;;5.20;4.80;;;32.30;44.50;;;32.05;nan;101464.47;4934017;28;20637;-69
2022/05/09 10:38:41;;;;;;;9.10;7.00;;;31.20;46.10;;;31.16;nan;101458.97;4938640;29;20637;-69
2022/05/09 10:41:48;;;;;;;7.50;6.00;;;30.40;46.70;;;30.56;nan;101442.56;4917763;29;20621;-69
2022/05/09 10:44:42;;;;;;;9.93;6.73;;;29.90;47.40;;;29.67;nan;101455.41;4904014;29;20668;-68
2022/05/09 10:47:48;;;;;;;5.47;4.97;;;28.90;48.30;;;29.09;nan;101437.66;4935170;29;21033;-69
2022/05/09 10:50:38;;;;;;;10.83;6.47;;;28.40;49.10;;;28.83;nan;101443.94;4918589;29;20624;-69
2022/05/09 10:53:34;;;;;;;5.83;5.30;;;28.00;49.70;;;28.74;nan;101438.97;4917444;29;20641;-68
2022/05/09 10:56:28;;;;;;;7.77;5.87;;;27.90;50.40;;;28.46;nan;101433.81;4947326;28;20639;-69
2022/05/09 10:59:04;;;;;;;7.20;5.37;;;27.70;50.90;;;28.18;nan;101431.34;4930927;29;20637;-68
2022/05/09 11:01:45;;;;;;;6.83;6.23;;;27.50;50.80;;;27.95;nan;101428.19;4918467;29;20609;-69
2022/05/09 11:04:16;;;;;;;7.10;5.83;;;27.30;51.90;;;27.73;nan;101417.84;4929379;29;21149;-72